Time;durP1;ratioP1;P1;durP2;ratioP2;P2;SDS_P1;SDS_P2;PMS_P1;PMS_P2;Temp;Humidity;BMP_temperature;BMP_pressure;BME280_temperature;BME280_humidity;BME280_pressure;Samples;Min_cycle;Max_cycle;Signal;HPM_P1;HPM_P2
2024/04/14 00:00:13;;;;;;;2.60;1.60;;;19.80;73.00;;;;;;2261421;26;19995;-70
2024/04/14 00:01:13;;;;;;;2.53;1.42;;;19.70;72.60;;;;;;2257952;26;20002;-70
2024/04/14 00:02:14;;;;;;;4.05;1.30;;;19.70;72.70;;;;;;2260536;26;20550;-69
2024/04/14 00:03:14;;;;;;;2.00;1.67;;;19.70;72.60;;;;;;2256229;26;20055;-70
2024/04/14 00:04:15;;;;;;;1.60;1.50;;;19.70;72.50;;;;;;2259359;26;20002;-69
2024/04/14 00:05:16;;;;;;;1.70;1.10;;;19.70;72.50;;;;;;2257803;26;20014;-70
2024/04/14 00:06:17;;;;;;;1.75;1.30;;;19.70;72.40;;;;;;2257738;26;20075;-69
2024/04/14 00:07:18;;;;;;;1.70;1.15;;;19.60;72.50;;;;;;2260023;26;20464;-70
2024/04/14 00:08:19;;;;;;;3.03;1.48;;;19.60;72.40;;;;;;2260892;26;19998;-69
2024/04/14 00:09:19;;;;;;;2.35;1.48;;;19.60;72.30;;;;;;2259348;26;20039;-69
2024/04/14 00:10:20;;;;;;;1.50;1.40;;;19.50;71.80;;;;;;2243472;26;20049;-70
2024/04/14 00:11:20;;;;;;;2.47;1.20;;;19.50;71.30;;;;;;2244763;26;20042;-71
2024/04/14 00:12:21;;;;;;;1.98;1.60;;;19.50;71.10;;;;;;2260428;26;20005;-69
2024/04/14 00:13:21;;;;;;;3.03;1.08;;;19.50;68.40;;;;;;2257125;26;20031;-70
2024/04/14 00:14:24;;;;;;;1.38;1.10;;;19.40;67.70;;;;;;2261119;26;20010;-70
2024/04/14 00:15:25;;;;;;;2.28;1.15;;;19.40;67.70;;;;;;2258072;26;20014;-70
2024/04/14 00:16:26;;;;;;;1.20;0.93;;;19.40;67.60;;;;;;2260604;26;20042;-69
2024/04/14 00:17:26;;;;;;;1.30;0.77;;;19.30;67.30;;;;;;2252257;26;20396;-70
2024/04/14 00:18:27;;;;;;;1.75;1.00;;;19.40;66.80;;;;;;2256106;26;20002;-70
2024/04/14 00:19:27;;;;;;;2.05;1.23;;;19.30;66.40;;;;;;2260896;26;19999;-70
2024/04/14 00:20:28;;;;;;;1.38;0.90;;;19.30;65.90;;;;;;2258942;26;20118;-71
2024/04/14 00:21:29;;;;;;;1.15;0.90;;;19.30;65.60;;;;;;2262048;26;20031;-70
2024/04/14 00:22:30;;;;;;;2.55;1.10;;;19.30;65.70;;;;;;2259245;26;19998;-70
2024/04/14 00:23:30;;;;;;;3.95;1.08;;;19.20;65.30;;;;;;2255855;26;20082;-71
2024/04/14 00:24:31;;;;;;;2.42;1.33;;;19.20;64.80;;;;;;2243469;26;19995;-70
2024/04/14 00:25:34;;;;;;;3.90;1.00;;;19.20;64.30;;;;;;2243515;26;20014;-69
2024/04/14 00:26:34;;;;;;;3.10;0.90;;;19.20;64.30;;;;;;2258428;26;19995;-69
2024/04/14 00:27:36;;;;;;;1.10;0.93;;;19.10;64.20;;;;;;2259485;26;20423;-70
2024/04/14 00:28:38;;;;;;;2.13;1.02;;;19.10;63.20;;;;;;2258047;26;19998;-69
2024/04/14 00:29:38;;;;;;;2.60;1.00;;;19.10;63.00;;;;;;2259171;26;19999;-70
2024/04/14 00:30:41;;;;;;;1.95;0.80;;;19.00;62.70;;;;;;2245970;26;20002;-70
2024/04/14 00:31:41;;;;;;;2.28;0.90;;;19.00;62.90;;;;;;2245519;26;20011;-69
2024/04/14 00:32:42;;;;;;;1.50;0.90;;;19.00;62.90;;;;;;2260639;26;20012;-69
2024/04/14 00:33:42;;;;;;;1.80;1.00;;;19.00;63.10;;;;;;2246536;26;20061;-70
2024/04/14 00:34:43;;;;;;;4.05;1.15;;;18.90;62.90;;;;;;2245086;26;20009;-70
2024/04/14 00:35:43;;;;;;;1.60;0.95;;;18.90;62.80;;;;;;2242805;26;20011;-70
2024/04/14 00:36:44;;;;;;;3.05;1.10;;;18.90;62.50;;;;;;2239814;26;20011;-70
2024/04/14 00:37:44;;;;;;;2.80;1.30;;;18.90;62.30;;;;;;2248843;26;20031;-70
2024/04/14 00:38:45;;;;;;;1.70;0.90;;;18.90;62.30;;;;;;2244558;26;20018;-70
2024/04/14 00:39:45;;;;;;;2.88;1.23;;;18.80;62.50;;;;;;2256685;26;20018;-70
2024/04/14 00:40:46;;;;;;;4.57;1.20;;;18.80;62.40;;;;;;2260225;26;20347;-70
2024/04/14 00:41:46;;;;;;;3.42;1.55;;;18.70;62.30;;;;;;2259419;26;20071;-69
2024/04/14 00:42:47;;;;;;;2.22;1.20;;;18.70;61.90;;;;;;2246530;26;20452;-69
2024/04/14 00:43:48;;;;;;;1.80;1.00;;;18.70;62.80;;;;;;2246037;26;20039;-69
2024/04/14 00:44:48;;;;;;;2.25;0.90;;;18.70;61.90;;;;;;2257091;26;20041;-70
2024/04/14 00:45:49;;;;;;;1.63;1.15;;;18.70;62.10;;;;;;2260750;26;20326;-70
2024/04/14 00:46:51;;;;;;;2.78;1.08;;;18.70;62.10;;;;;;2244169;26;20002;-69
2024/04/14 00:47:52;;;;;;;8.98;1.20;;;18.60;61.70;;;;;;2243325;26;21160;-70
2024/04/14 00:48:52;;;;;;;3.67;1.10;;;18.60;61.90;;;;;;2259079;26;20003;-69
2024/04/14 00:49:53;;;;;;;3.30;1.00;;;18.60;61.80;;;;;;2254803;26;20023;-70
2024/04/14 00:50:54;;;;;;;2.45;1.00;;;18.60;61.90;;;;;;2259699;26;20013;-71
2024/04/14 00:51:55;;;;;;;1.63;1.08;;;18.50;61.80;;;;;;2261058;26;20045;-71
2024/04/14 00:52:55;;;;;;;2.50;0.90;;;18.50;61.50;;;;;;2243014;26;19998;-70
2024/04/14 00:53:56;;;;;;;2.05;1.00;;;18.50;61.70;;;;;;2247870;26;20034;-70
2024/04/14 00:54:57;;;;;;;1.38;0.90;;;18.40;61.80;;;;;;2258658;26;20371;-70
2024/04/14 00:55:58;;;;;;;5.28;1.30;;;18.40;62.20;;;;;;2240778;26;20007;-69
2024/04/14 00:57:01;;;;;;;3.30;1.17;;;18.40;62.10;;;;;;2247483;26;20784;-70
2024/04/14 00:58:02;;;;;;;3.33;1.10;;;18.40;62.10;;;;;;2255884;26;19995;-70
2024/04/14 00:59:04;;;;;;;4.97;1.15;;;18.40;62.20;;;;;;2256469;26;20592;-70
2024/04/14 01:00:06;;;;;;;2.10;1.00;;;18.40;62.30;;;;;;2256769;26;20009;-70
2024/04/14 01:01:07;;;;;;;2.55;1.45;;;18.30;62.00;;;;;;2256529;26;20419;-70
2024/04/14 01:02:08;;;;;;;3.47;0.90;;;18.30;62.10;;;;;;2260375;26;19999;-71
2024/04/14 01:03:10;;;;;;;4.47;1.48;;;18.30;62.20;;;;;;2259628;26;20067;-71
2024/04/14 01:04:10;;;;;;;1.38;0.80;;;18.20;62.20;;;;;;2259298;26;20431;-70
2024/04/14 01:05:11;;;;;;;1.10;0.90;;;18.20;62.80;;;;;;2241027;26;20391;-71
2024/04/14 01:06:11;;;;;;;3.60;1.25;;;18.20;62.90;;;;;;2228916;26;19998;-68
2024/04/14 01:07:12;;;;;;;4.75;1.23;;;18.20;63.40;;;;;;2246412;26;20010;-69
2024/04/14 01:08:13;;;;;;;1.67;0.88;;;18.20;63.40;;;;;;2257152;26;20002;-68
2024/04/14 01:09:14;;;;;;;2.97;0.90;;;18.20;63.10;;;;;;2258869;26;20071;-69
2024/04/14 01:10:16;;;;;;;4.22;1.00;;;18.20;63.10;;;;;;2260915;26;20442;-68
2024/04/14 01:11:16;;;;;;;2.10;1.10;;;18.20;63.10;;;;;;2259361;26;20002;-69
2024/04/14 01:12:17;;;;;;;1.20;0.80;;;18.20;63.10;;;;;;2259027;26;19999;-72
2024/04/14 01:13:17;;;;;;;3.08;0.98;;;18.20;63.10;;;;;;2258870;26;19999;-69
2024/04/14 01:14:18;;;;;;;2.42;1.35;;;18.10;63.00;;;;;;2256321;26;19990;-69
2024/04/14 01:15:19;;;;;;;1.90;0.90;;;18.10;63.10;;;;;;2256988;26;20023;-68
2024/04/14 01:16:19;;;;;;;2.83;1.25;;;18.10;63.10;;;;;;2256921;26;19999;-70
2024/04/14 01:17:20;;;;;;;1.08;0.95;;;18.10;63.20;;;;;;2258428;26;19995;-69
2024/04/14 01:18:20;;;;;;;2.85;1.10;;;18.00;63.20;;;;;;2259042;26;20018;-70
2024/04/14 01:19:21;;;;;;;2.92;1.10;;;18.00;63.10;;;;;;2256638;26;19995;-70
2024/04/14 01:20:22;;;;;;;2.85;1.63;;;18.00;63.10;;;;;;2257622;26;20006;-70
2024/04/14 01:21:23;;;;;;;1.52;0.93;;;17.90;63.40;;;;;;2259515;26;20005;-70
2024/04/14 01:22:23;;;;;;;1.58;1.35;;;17.90;63.70;;;;;;2260993;26;20010;-69
2024/04/14 01:23:26;;;;;;;2.83;1.10;;;17.90;64.00;;;;;;2260862;26;20006;-69
2024/04/14 01:24:26;;;;;;;2.42;1.23;;;17.90;64.50;;;;;;2255533;26;20447;-69
2024/04/14 01:25:27;;;;;;;3.95;1.20;;;17.90;64.60;;;;;;2257622;26;20347;-70
2024/04/14 01:26:27;;;;;;;2.25;1.23;;;17.80;64.70;;;;;;2257569;26;20002;-70
2024/04/14 01:27:28;;;;;;;1.30;0.93;;;17.80;64.70;;;;;;2260685;25;20351;-69
2024/04/14 01:28:28;;;;;;;2.80;1.40;;;17.80;65.30;;;;;;2257068;26;19998;-69
2024/04/14 01:29:29;;;;;;;4.68;1.35;;;17.80;65.20;;;;;;2260511;26;20068;-70
2024/04/14 01:30:29;;;;;;;4.63;1.45;;;17.80;64.90;;;;;;2257838;26;20011;-70
2024/04/14 01:31:30;;;;;;;1.67;1.30;;;17.80;65.00;;;;;;2258982;26;20080;-69
2024/04/14 01:32:33;;;;;;;5.18;1.75;;;17.80;65.10;;;;;;2256220;26;19999;-70
2024/04/14 01:33:34;;;;;;;4.32;1.10;;;17.80;65.40;;;;;;2249479;26;20400;-70
2024/04/14 01:34:34;;;;;;;2.42;1.33;;;17.70;65.70;;;;;;2247953;26;20371;-70
2024/04/14 01:35:35;;;;;;;3.03;1.25;;;17.70;65.80;;;;;;2257041;26;20526;-69
2024/04/14 01:36:35;;;;;;;4.72;1.60;;;17.70;66.00;;;;;;2259835;26;20003;-70
2024/04/14 01:37:36;;;;;;;3.92;1.50;;;17.60;66.00;;;;;;2255771;26;20013;-70
2024/04/14 01:38:37;;;;;;;3.00;1.60;;;17.60;66.20;;;;;;2256652;26;20074;-70
2024/04/14 01:39:37;;;;;;;4.28;1.70;;;17.60;66.40;;;;;;2259819;26;20006;-69
2024/04/14 01:40:38;;;;;;;2.80;1.60;;;17.60;66.70;;;;;;2259673;26;19999;-70
2024/04/14 01:41:39;;;;;;;6.78;1.52;;;17.50;66.80;;;;;;2256797;26;20330;-69
2024/04/14 01:42:40;;;;;;;4.30;1.48;;;17.50;66.70;;;;;;2245256;26;20016;-68
2024/04/14 01:43:41;;;;;;;3.55;1.30;;;17.50;66.90;;;;;;2246392;26;20484;-69
2024/04/14 01:44:41;;;;;;;3.67;1.20;;;17.40;67.00;;;;;;2258921;26;20355;-69
2024/04/14 01:45:42;;;;;;;3.45;1.58;;;17.40;67.30;;;;;;2258552;26;19999;-69
2024/04/14 01:46:42;;;;;;;4.80;1.33;;;17.40;67.30;;;;;;2257515;26;20023;-69
2024/04/14 01:47:43;;;;;;;3.90;1.45;;;17.40;67.60;;;;;;2253866;26;19999;-70
2024/04/14 01:48:43;;;;;;;5.10;1.25;;;17.40;67.60;;;;;;2244178;26;20050;-69
2024/04/14 01:49:44;;;;;;;4.40;1.30;;;17.30;67.90;;;;;;2246972;26;19995;-69
2024/04/14 01:50:44;;;;;;;3.53;1.50;;;17.30;68.00;;;;;;2255189;26;19995;-69
2024/04/14 01:51:45;;;;;;;3.53;1.40;;;17.30;68.20;;;;;;2262173;26;19998;-68
2024/04/14 01:52:45;;;;;;;7.72;1.60;;;17.30;68.30;;;;;;2259266;26;20071;-69
2024/04/14 01:53:46;;;;;;;6.55;1.88;;;17.30;68.50;;;;;;2259086;26;19991;-69
2024/04/14 01:54:46;;;;;;;2.05;1.17;;;17.30;68.30;;;;;;2259099;26;19994;-69
2024/04/14 01:55:47;;;;;;;5.50;1.50;;;17.20;68.70;;;;;;2259041;26;20033;-69
2024/04/14 01:56:48;;;;;;;3.60;1.63;;;17.30;68.80;;;;;;2257313;26;20003;-69
2024/04/14 01:57:48;;;;;;;4.13;1.40;;;17.20;68.60;;;;;;2259158;26;20451;-68
2024/04/14 01:58:49;;;;;;;4.38;1.55;;;17.20;68.70;;;;;;2259839;26;20385;-69
2024/04/14 01:59:49;;;;;;;5.95;1.98;;;17.20;68.70;;;;;;2257365;26;20010;-69
2024/04/14 02:00:50;;;;;;;3.53;1.50;;;17.20;68.80;;;;;;2263419;26;20002;-68
2024/04/14 02:01:50;;;;;;;3.45;1.63;;;17.20;68.90;;;;;;2256836;26;20070;-69
2024/04/14 02:02:54;;;;;;;3.67;1.48;;;17.20;69.30;;;;;;2258914;26;20005;-68
2024/04/14 02:03:55;;;;;;;3.72;1.70;;;17.20;69.50;;;;;;2257860;26;20439;-69
2024/04/14 02:04:55;;;;;;;5.22;1.60;;;17.20;69.60;;;;;;2261071;26;20326;-69
2024/04/14 02:05:59;;;;;;;3.28;1.23;;;17.20;69.80;;;;;;2258245;26;19999;-69
2024/04/14 02:07:00;;;;;;;7.03;1.35;;;17.20;70.00;;;;;;2258671;26;20002;-68
2024/04/14 02:08:00;;;;;;;5.07;1.88;;;17.20;70.10;;;;;;2257373;26;20010;-69
2024/04/14 02:09:01;;;;;;;5.07;1.80;;;17.20;70.00;;;;;;2259792;26;20012;-69
2024/04/14 02:10:02;;;;;;;3.30;1.42;;;17.20;70.00;;;;;;2259126;26;20003;-69
2024/04/14 02:11:03;;;;;;;4.85;2.10;;;17.10;70.20;;;;;;2256959;26;20009;-69
2024/04/14 02:12:04;;;;;;;1.75;1.20;;;17.20;70.20;;;;;;2258779;26;20002;-69
2024/04/14 02:13:05;;;;;;;9.98;2.40;;;17.10;70.20;;;;;;2257147;26;20003;-69
2024/04/14 02:14:05;;;;;;;2.53;1.17;;;17.10;70.20;;;;;;2249137;26;19998;-69
2024/04/14 02:15:06;;;;;;;3.65;1.55;;;17.10;70.00;;;;;;2251707;26;20491;-69
2024/04/14 02:16:06;;;;;;;3.65;1.52;;;17.10;70.00;;;;;;2259934;26;20014;-69
2024/04/14 02:17:07;;;;;;;4.13;1.48;;;17.10;70.50;;;;;;2259682;26;19999;-69
2024/04/14 02:18:07;;;;;;;3.28;1.48;;;17.20;70.80;;;;;;2262046;26;20002;-68
2024/04/14 02:19:08;;;;;;;4.28;1.52;;;17.10;70.60;;;;;;2258576;26;20014;-70
2024/04/14 02:20:11;;;;;;;4.38;1.63;;;17.10;70.70;;;;;;2261897;26;20445;-69
2024/04/14 02:21:12;;;;;;;2.67;1.27;;;17.10;70.40;;;;;;2260331;26;20551;-69
2024/04/14 02:22:13;;;;;;;5.57;1.63;;;17.10;70.50;;;;;;2257873;26;20010;-69
2024/04/14 02:23:13;;;;;;;2.25;1.20;;;17.10;70.60;;;;;;2243751;26;20018;-69
2024/04/14 02:24:14;;;;;;;2.92;1.70;;;17.10;70.50;;;;;;2244830;26;19996;-69
2024/04/14 02:25:14;;;;;;;4.95;1.60;;;17.10;70.60;;;;;;2257871;26;19999;-68
2024/04/14 02:26:15;;;;;;;4.45;1.58;;;17.10;70.70;;;;;;2257904;26;20100;-70
2024/04/14 02:27:15;;;;;;;3.83;1.42;;;17.10;70.50;;;;;;2245423;26;20009;-68
2024/04/14 02:28:16;;;;;;;3.05;1.65;;;17.10;70.40;;;;;;2247845;26;19999;-69
2024/04/14 02:29:17;;;;;;;3.80;1.60;;;17.10;70.40;;;;;;2259873;26;20039;-69
2024/04/14 02:30:17;;;;;;;6.57;1.88;;;17.10;70.70;;;;;;2260019;26;19999;-69
2024/04/14 02:31:18;;;;;;;3.28;1.95;;;17.10;71.00;;;;;;2259559;26;20002;-69
2024/04/14 02:32:19;;;;;;;5.30;1.95;;;17.10;71.20;;;;;;2261010;26;20070;-69
2024/04/14 02:33:21;;;;;;;4.70;1.60;;;17.10;71.10;;;;;;2260216;26;20070;-69
2024/04/14 02:34:22;;;;;;;4.88;1.60;;;17.10;71.00;;;;;;2261185;26;19995;-69
2024/04/14 02:35:22;;;;;;;2.92;1.67;;;17.10;71.10;;;;;;2260804;26;19997;-69
2024/04/14 02:36:26;;;;;;;5.72;1.55;;;17.10;70.90;;;;;;2259331;26;19999;-70
2024/04/14 02:37:27;;;;;;;5.03;1.85;;;17.10;71.10;;;;;;2260917;26;20099;-69
2024/04/14 02:38:29;;;;;;;3.35;1.42;;;17.10;71.10;;;;;;2258034;26;20002;-70
2024/04/14 02:39:29;;;;;;;4.20;1.73;;;17.10;71.20;;;;;;2258104;26;20003;-69
2024/04/14 02:40:30;;;;;;;3.15;1.52;;;17.10;71.20;;;;;;2258032;26;19999;-69
2024/04/14 02:41:30;;;;;;;5.47;1.58;;;17.10;71.40;;;;;;2258490;26;20430;-70
2024/04/14 02:42:40;;;;;;;3.50;1.58;;;17.00;71.50;;;;;;2259315;26;19999;-68
2024/04/14 02:43:40;;;;;;;5.23;1.50;;;17.10;71.70;;;;;;2258702;26;20014;-69
2024/04/14 02:44:41;;;;;;;6.75;1.65;;;17.00;72.00;;;;;;2259020;26;20295;-69
2024/04/14 02:45:41;;;;;;;5.10;1.83;;;17.00;72.00;;;;;;2259904;26;20043;-69
2024/04/14 02:46:42;;;;;;;4.60;1.83;;;17.00;71.80;;;;;;2257827;26;20431;-69
2024/04/14 02:47:42;;;;;;;6.53;1.90;;;17.00;72.00;;;;;;2259259;26;20007;-68
2024/04/14 02:48:48;;;;;;;6.40;1.90;;;17.00;72.00;;;;;;2258692;26;20013;-68
2024/04/14 02:49:49;;;;;;;5.72;1.65;;;17.00;72.20;;;;;;2261702;26;20044;-69
2024/04/14 02:50:49;;;;;;;2.95;1.73;;;17.00;72.20;;;;;;2243538;26;19999;-69
2024/04/14 02:51:50;;;;;;;4.95;1.98;;;17.00;72.30;;;;;;2242433;26;20018;-69
2024/04/14 02:52:50;;;;;;;6.30;2.30;;;17.00;72.60;;;;;;2258802;26;20435;-69
2024/04/14 02:53:51;;;;;;;7.93;2.28;;;17.00;72.60;;;;;;2260308;26;20003;-69
2024/04/14 02:54:51;;;;;;;6.25;1.90;;;17.00;72.80;;;;;;2260515;26;20013;-69
2024/04/14 02:55:52;;;;;;;4.15;1.80;;;17.00;72.70;;;;;;2257252;26;20017;-69
2024/04/14 02:56:52;;;;;;;6.10;2.08;;;17.00;72.60;;;;;;2259788;26;20002;-68
2024/04/14 02:57:53;;;;;;;4.20;2.13;;;17.00;72.70;;;;;;2258462;26;19999;-69
2024/04/14 02:58:54;;;;;;;7.55;1.90;;;17.00;72.70;;;;;;2259740;26;20697;-68
2024/04/14 02:59:54;;;;;;;7.40;2.15;;;17.00;72.70;;;;;;2258221;26;20003;-69
2024/04/14 03:01:00;;;;;;;4.20;1.77;;;17.00;72.90;;;;;;2258155;26;20014;-70
2024/04/14 03:02:01;;;;;;;6.40;2.08;;;16.90;72.90;;;;;;2245725;26;20452;-69
2024/04/14 03:03:02;;;;;;;4.65;1.80;;;16.90;72.90;;;;;;2246154;26;20328;-69
2024/04/14 03:04:02;;;;;;;5.28;1.80;;;16.90;73.10;;;;;;2258105;26;20035;-68
2024/04/14 03:05:03;;;;;;;9.05;2.33;;;16.90;73.30;;;;;;2262348;26;19998;-69
2024/04/14 03:06:04;;;;;;;8.00;2.05;;;16.90;73.40;;;;;;2258051;26;20499;-69
2024/04/14 03:07:05;;;;;;;5.47;2.17;;;16.90;73.40;;;;;;2257932;26;20455;-69
2024/04/14 03:08:06;;;;;;;4.63;2.17;;;16.90;73.40;;;;;;2260302;26;20343;-69
2024/04/14 03:09:06;;;;;;;4.38;1.95;;;16.90;73.70;;;;;;2259221;26;19999;-68
2024/04/14 03:10:07;;;;;;;7.13;2.28;;;16.90;73.90;;;;;;2251453;26;20336;-69
2024/04/14 03:11:08;;;;;;;8.48;2.25;;;16.90;73.90;;;;;;2250883;26;20006;-69
2024/04/14 03:12:08;;;;;;;5.13;2.08;;;16.90;73.90;;;;;;2256527;26;20010;-70
2024/04/14 03:13:09;;;;;;;7.55;2.85;;;16.90;74.10;;;;;;2263494;26;19998;-68
2024/04/14 03:14:09;;;;;;;4.88;2.20;;;16.80;74.00;;;;;;2260121;26;19998;-69
2024/04/14 03:15:11;;;;;;;4.45;2.25;;;16.80;73.90;;;;;;2252097;26;20039;-69
2024/04/14 03:16:11;;;;;;;7.97;2.30;;;16.80;74.70;;;;;;2258715;26;20031;-69
2024/04/14 03:17:12;;;;;;;6.28;2.55;;;16.80;74.20;;;;;;2257021;26;20001;-69
2024/04/14 03:18:12;;;;;;;7.68;2.33;;;16.80;74.30;;;;;;2262212;26;19994;-68
2024/04/14 03:19:13;;;;;;;6.25;2.17;;;16.80;74.40;;;;;;2260815;26;19991;-69
2024/04/14 03:20:13;;;;;;;5.70;2.17;;;16.80;74.40;;;;;;2243517;26;20004;-69
2024/04/14 03:21:14;;;;;;;8.50;3.10;;;16.80;74.50;;;;;;2230751;26;20012;-69
2024/04/14 03:22:14;;;;;;;9.23;2.40;;;16.70;74.50;;;;;;2242478;26;19996;-68
2024/04/14 03:23:15;;;;;;;8.10;2.60;;;16.70;74.60;;;;;;2256814;26;20400;-69
2024/04/14 03:24:16;;;;;;;10.15;2.78;;;16.70;74.60;;;;;;2262119;26;20419;-69
2024/04/14 03:25:16;;;;;;;8.25;2.35;;;16.80;74.80;;;;;;2259266;26;20346;-68
2024/04/14 03:26:17;;;;;;;5.63;2.63;;;16.70;74.80;;;;;;2259652;26;20006;-69
2024/04/14 03:27:17;;;;;;;7.50;2.08;;;16.70;74.80;;;;;;2257169;26;20068;-68
2024/04/14 03:28:22;;;;;;;9.38;2.35;;;16.70;74.80;;;;;;2259791;26;20010;-69
2024/04/14 03:29:23;;;;;;;8.70;2.47;;;16.70;74.80;;;;;;2258933;26;19998;-70
2024/04/14 03:30:23;;;;;;;5.32;2.50;;;16.70;74.90;;;;;;2260733;26;19998;-68
2024/04/14 03:31:24;;;;;;;6.68;2.30;;;16.70;74.90;;;;;;2256643;26;20466;-69
2024/04/14 03:32:24;;;;;;;7.38;2.38;;;16.70;75.10;;;;;;2260288;26;20347;-69
2024/04/14 03:33:25;;;;;;;6.10;2.22;;;16.70;75.20;;;;;;2257041;26;20015;-69
2024/04/14 03:34:26;;;;;;;6.60;2.60;;;16.70;75.20;;;;;;2258119;26;20007;-69
2024/04/14 03:35:26;;;;;;;7.93;2.47;;;16.60;75.40;;;;;;2260173;26;20698;-69
2024/04/14 03:36:27;;;;;;;6.15;2.25;;;16.60;75.40;;;;;;2259880;26;19998;-68
2024/04/14 03:37:27;;;;;;;9.13;2.33;;;16.60;75.50;;;;;;2259072;26;20002;-70
2024/04/14 03:38:28;;;;;;;5.80;2.25;;;16.70;75.80;;;;;;2261520;26;20013;-69
2024/04/14 03:39:29;;;;;;;6.82;2.35;;;16.70;75.80;;;;;;2259496;26;20013;-69
2024/04/14 03:40:30;;;;;;;6.10;2.67;;;16.70;75.80;;;;;;2258308;26;20340;-68
2024/04/14 03:41:31;;;;;;;5.97;2.40;;;16.70;75.80;;;;;;2259745;26;20091;-69
2024/04/14 03:42:34;;;;;;;7.20;2.53;;;16.70;75.90;;;;;;2262316;26;20071;-69
2024/04/14 03:43:35;;;;;;;10.55;2.80;;;16.60;75.90;;;;;;2258029;26;19998;-69
2024/04/14 03:44:35;;;;;;;4.65;2.47;;;16.60;76.00;;;;;;2260276;26;20086;-70
2024/04/14 03:45:41;;;;;;;8.05;3.10;;;16.60;76.10;;;;;;2260050;26;20015;-69
2024/04/14 03:46:41;;;;;;;8.90;2.70;;;16.70;76.20;;;;;;2258998;26;20409;-70
2024/04/14 03:47:43;;;;;;;5.78;2.53;;;16.60;76.10;;;;;;2258900;26;20133;-70
2024/04/14 03:48:43;;;;;;;5.72;2.53;;;16.60;76.20;;;;;;2259570;26;20712;-70
2024/04/14 03:49:43;;;;;;;6.35;2.72;;;16.60;76.30;;;;;;2257578;26;20066;-69
2024/04/14 03:50:47;;;;;;;6.00;2.80;;;16.60;76.40;;;;;;2259317;26;20355;-69
2024/04/14 03:51:48;;;;;;;10.73;3.22;;;16.60;76.50;;;;;;2256942;26;20013;-70
2024/04/14 03:52:49;;;;;;;6.65;3.05;;;16.60;76.40;;;;;;2260763;26;20042;-69
2024/04/14 03:53:49;;;;;;;7.57;2.95;;;16.60;76.40;;;;;;2257349;26;19999;-70
2024/04/14 03:54:50;;;;;;;10.35;3.08;;;16.60;76.60;;;;;;2260747;26;20451;-69
2024/04/14 03:55:51;;;;;;;6.03;2.53;;;16.60;76.60;;;;;;2261452;26;20767;-70
2024/04/14 03:56:51;;;;;;;7.30;2.80;;;16.60;76.80;;;;;;2256956;26;20010;-70
2024/04/14 03:57:52;;;;;;;7.70;2.53;;;16.60;76.90;;;;;;2257147;26;19998;-70
2024/04/14 03:58:52;;;;;;;8.52;3.08;;;16.60;77.00;;;;;;2245517;26;20011;-69
2024/04/14 03:59:53;;;;;;;10.45;3.47;;;16.60;77.10;;;;;;2242155;26;20915;-69
2024/04/14 04:00:53;;;;;;;9.18;2.67;;;16.60;76.90;;;;;;2258814;26;20011;-69
2024/04/14 04:01:54;;;;;;;12.18;3.00;;;16.60;76.90;;;;;;2258654;26;20054;-69
2024/04/14 04:02:55;;;;;;;5.95;2.58;;;16.60;77.00;;;;;;2256912;26;20336;-69
2024/04/14 04:03:55;;;;;;;8.20;3.20;;;16.60;77.10;;;;;;2258636;26;20036;-70
2024/04/14 04:04:56;;;;;;;6.72;2.65;;;16.60;77.20;;;;;;2258282;26;20621;-70
2024/04/14 04:05:57;;;;;;;6.78;3.03;;;16.50;77.30;;;;;;2252393;26;20009;-70
2024/04/14 04:06:57;;;;;;;9.73;2.80;;;16.50;77.30;;;;;;2250242;26;20341;-70
2024/04/14 04:07:58;;;;;;;5.97;2.80;;;16.50;77.40;;;;;;2258507;26;20192;-69
2024/04/14 04:08:58;;;;;;;8.13;2.92;;;16.50;77.50;;;;;;2260389;26;20006;-70
2024/04/14 04:09:59;;;;;;;10.48;3.08;;;16.50;77.60;;;;;;2257315;26;19998;-70
2024/04/14 04:11:02;;;;;;;8.25;3.10;;;16.50;77.50;;;;;;2260195;26;19998;-69
2024/04/14 04:12:03;;;;;;;10.63;3.00;;;16.50;77.50;;;;;;2260867;26;19994;-70
2024/04/14 04:13:04;;;;;;;6.70;2.55;;;16.50;77.70;;;;;;2259756;26;19999;-70
2024/04/14 04:14:04;;;;;;;6.18;2.95;;;16.50;77.80;;;;;;2259412;26;20002;-69
2024/04/14 04:15:05;;;;;;;6.05;2.63;;;16.50;77.90;;;;;;2259122;26;20003;-70
2024/04/14 04:16:06;;;;;;;7.45;2.70;;;16.40;77.90;;;;;;2257283;26;20399;-70
2024/04/14 04:17:07;;;;;;;8.10;2.97;;;16.40;78.10;;;;;;2257213;26;19995;-70
2024/04/14 04:18:07;;;;;;;9.82;2.88;;;16.40;79.00;;;;;;2259502;26;20009;-70
2024/04/14 04:19:07;;;;;;;6.25;3.08;;;16.40;78.40;;;;;;2260958;26;20009;-70
2024/04/14 04:20:08;;;;;;;7.43;2.92;;;16.40;78.40;;;;;;2261278;26;20058;-69
2024/04/14 04:21:09;;;;;;;5.40;2.58;;;16.40;78.50;;;;;;2259514;26;20483;-70
2024/04/14 04:22:10;;;;;;;7.45;3.05;;;16.40;78.60;;;;;;2260499;26;20699;-70
2024/04/14 04:23:10;;;;;;;9.75;3.22;;;16.40;78.60;;;;;;2260027;26;20016;-70
2024/04/14 04:24:11;;;;;;;11.77;2.88;;;16.30;78.50;;;;;;2258516;26;19999;-69
2024/04/14 04:25:11;;;;;;;9.05;3.03;;;16.30;78.70;;;;;;2247531;26;20006;-70
2024/04/14 04:26:12;;;;;;;8.07;3.60;;;16.30;78.70;;;;;;2244299;26;20022;-70
2024/04/14 04:27:12;;;;;;;9.52;3.00;;;16.30;78.90;;;;;;2264108;26;20010;-69
2024/04/14 04:28:13;;;;;;;10.95;4.00;;;16.30;79.10;;;;;;2258395;26;20006;-70
2024/04/14 04:29:13;;;;;;;7.53;3.55;;;16.20;79.90;;;;;;2257761;26;20003;-70
2024/04/14 04:30:14;;;;;;;7.25;2.58;;;16.30;79.20;;;;;;2261480;26;20762;-69
2024/04/14 04:31:15;;;;;;;8.40;4.25;;;16.20;79.30;;;;;;2257951;26;20470;-70
2024/04/14 04:32:17;;;;;;;9.00;3.10;;;16.20;79.40;;;;;;2259491;26;20002;-69
2024/04/14 04:33:19;;;;;;;10.43;3.78;;;16.20;79.40;;;;;;2258136;26;20010;-70
2024/04/14 04:34:19;;;;;;;6.97;2.78;;;16.20;79.50;;;;;;2261045;26;20362;-69
2024/04/14 04:35:20;;;;;;;8.63;3.25;;;16.20;79.60;;;;;;2260410;26;19998;-70
2024/04/14 04:36:20;;;;;;;8.73;2.95;;;16.20;79.80;;;;;;2258631;26;20017;-70
2024/04/14 04:37:21;;;;;;;9.43;3.08;;;16.20;79.80;;;;;;2255535;26;19999;-70
2024/04/14 04:38:23;;;;;;;7.82;3.70;;;16.20;79.90;;;;;;2256911;26;19998;-69
2024/04/14 04:39:23;;;;;;;8.02;3.08;;;16.20;79.90;;;;;;2257785;26;19999;-69
2024/04/14 04:40:24;;;;;;;7.93;2.78;;;16.20;80.10;;;;;;2258539;26;20002;-69
2024/04/14 04:41:24;;;;;;;9.20;3.25;;;16.20;80.10;;;;;;2260055;26;20002;-69
2024/04/14 04:42:25;;;;;;;8.48;3.38;;;16.20;80.10;;;;;;2248900;26;20514;-70
2024/04/14 04:43:28;;;;;;;8.55;3.72;;;16.20;80.20;;;;;;2236941;26;20453;-70
2024/04/14 04:44:29;;;;;;;13.07;4.88;;;16.20;80.40;;;;;;2243386;26;20014;-70
2024/04/14 04:45:29;;;;;;;9.10;3.30;;;16.10;80.50;;;;;;2259925;26;20010;-69
2024/04/14 04:46:30;;;;;;;9.55;2.83;;;16.10;80.60;;;;;;2258312;26;20074;-70
2024/04/14 04:47:30;;;;;;;7.30;3.22;;;16.10;80.70;;;;;;2259139;26;20006;-69
2024/04/14 04:48:31;;;;;;;7.78;3.38;;;16.10;80.90;;;;;;2257206;26;20011;-69
2024/04/14 04:49:32;;;;;;;9.60;4.05;;;16.10;80.90;;;;;;2258240;26;20615;-70
2024/04/14 04:50:32;;;;;;;8.63;3.15;;;16.10;81.00;;;;;;2257629;26;20003;-70
2024/04/14 04:51:33;;;;;;;9.65;3.80;;;16.10;81.00;;;;;;2259912;26;20002;-70
2024/04/14 04:52:33;;;;;;;8.77;3.97;;;16.10;81.10;;;;;;2257399;26;20419;-69
2024/04/14 04:53:34;;;;;;;9.10;3.08;;;16.10;81.20;;;;;;2258099;26;19999;-69
2024/04/14 04:54:34;;;;;;;8.70;3.30;;;16.10;81.30;;;;;;2256917;26;20073;-69
2024/04/14 04:55:35;;;;;;;11.13;3.95;;;16.10;81.70;;;;;;2260582;26;20006;-70
2024/04/14 04:56:35;;;;;;;10.13;3.75;;;16.10;81.40;;;;;;2261438;26;20007;-69
2024/04/14 04:57:36;;;;;;;6.00;2.70;;;16.20;81.50;;;;;;2258365;26;20403;-69
2024/04/14 04:58:36;;;;;;;10.43;3.58;;;16.10;81.60;;;;;;2260236;26;20006;-69
2024/04/14 04:59:37;;;;;;;9.57;3.50;;;16.20;81.60;;;;;;2260398;26;20071;-69
2024/04/14 05:00:37;;;;;;;7.85;3.33;;;16.20;81.60;;;;;;2255394;26;20003;-69
2024/04/14 05:01:38;;;;;;;8.10;3.47;;;16.10;82.30;;;;;;2261270;26;19998;-70
2024/04/14 05:02:38;;;;;;;9.48;3.45;;;16.10;81.70;;;;;;2248925;26;20002;-69
2024/04/14 05:03:39;;;;;;;10.27;4.18;;;16.10;81.80;;;;;;2249637;26;20081;-70
2024/04/14 05:04:39;;;;;;;6.80;3.25;;;16.10;82.00;;;;;;2254596;26;20589;-70
2024/04/14 05:05:40;;;;;;;12.40;3.83;;;16.10;82.10;;;;;;2259086;26;20017;-69
2024/04/14 05:06:40;;;;;;;9.68;3.40;;;16.10;82.10;;;;;;2256737;26;20009;-69
2024/04/14 05:07:41;;;;;;;10.32;3.70;;;16.10;82.20;;;;;;2256237;26;20071;-70
2024/04/14 05:08:41;;;;;;;10.63;3.60;;;16.10;82.20;;;;;;2257239;26;19998;-70
2024/04/14 05:09:42;;;;;;;8.98;3.88;;;16.20;82.30;;;;;;2260346;26;20330;-70
2024/04/14 05:10:43;;;;;;;9.70;4.22;;;16.10;82.20;;;;;;2260472;26;20010;-70
2024/04/14 05:11:43;;;;;;;9.48;3.88;;;16.10;82.40;;;;;;2258818;26;20038;-70
2024/04/14 05:12:43;;;;;;;9.00;3.35;;;16.10;82.50;;;;;;2260136;26;19998;-69
2024/04/14 05:13:44;;;;;;;7.78;3.78;;;16.00;82.60;;;;;;2259716;26;20007;-70
2024/04/14 05:14:45;;;;;;;8.52;3.47;;;16.00;82.70;;;;;;2259460;26;20035;-69
2024/04/14 05:15:45;;;;;;;10.95;3.70;;;16.00;82.90;;;;;;2256786;26;20010;-69